createdAt,value
2023-04-10T00:01:46.526Z,48.97
2023-04-10T00:04:13.162Z,52.30
2023-04-10T00:06:39.561Z,49.35
2023-04-10T00:09:05.907Z,50.22
2023-04-10T00:11:32.313Z,48.45
2023-04-10T00:14:00.202Z,52.70
2023-04-10T00:16:26.651Z,55.63
2023-04-10T00:18:53.065Z,52.38
2023-04-10T00:21:19.416Z,53.90
2023-04-10T00:23:45.741Z,53.75
2023-04-10T00:26:12.128Z,53.15
2023-04-10T00:28:38.486Z,55.17
2023-04-10T00:31:06.444Z,53.65
2023-04-10T00:33:32.814Z,56.33
2023-04-10T00:35:59.265Z,54.95
2023-04-10T00:38:25.770Z,57.10
2023-04-10T00:40:52.152Z,59.33
2023-04-10T00:43:18.566Z,52.75
2023-04-10T00:45:44.984Z,55.20
2023-04-10T00:48:12.844Z,59.22
2023-04-10T00:50:39.299Z,57.15
2023-04-10T00:53:05.681Z,58.72
2023-04-10T00:55:32.071Z,55.80
2023-04-10T00:57:58.462Z,58.67
2023-04-10T01:00:25.668Z,51.40
2023-04-10T01:02:52.325Z,51.40
2023-04-10T01:05:20.348Z,57.72
2023-04-10T01:07:59.225Z,52.92
2023-04-10T01:10:34.805Z,61.10
2023-04-10T01:13:08.615Z,55.95
2023-04-10T01:18:11.212Z,58.50
2023-04-10T01:20:40.605Z,58.37
2023-04-10T01:23:30.839Z,56.90
2023-04-10T01:26:00.861Z,56.15
2023-04-10T01:28:52.800Z,58.60
2023-04-10T01:31:24.697Z,61.42
2023-04-10T01:33:54.415Z,57.88
2023-04-10T01:36:24.206Z,60.70
2023-04-10T01:38:53.260Z,60.17
2023-04-10T01:41:21.747Z,66.38
2023-04-10T01:43:52.457Z,61.38
2023-04-10T01:46:21.320Z,59.97
2023-04-10T01:48:49.159Z,56.38
2023-04-10T01:51:17.220Z,58.90
2023-04-10T01:53:44.566Z,55.88
2023-04-10T01:56:11.055Z,63.30
2023-04-10T01:58:37.612Z,58.55
2023-04-10T02:01:05.817Z,54.03
2023-04-10T02:03:32.800Z,55.45
2023-04-10T02:06:11.168Z,50.97
2023-04-10T02:08:40.410Z,57.50
2023-04-10T02:11:12.942Z,53.55
2023-04-10T02:13:41.250Z,53.08
2023-04-10T02:16:10.128Z,55.75
2023-04-10T02:18:38.411Z,51.22
2023-04-10T02:21:06.490Z,53.38
2023-04-10T02:23:32.992Z,52.35
2023-04-10T02:26:06.190Z,51.80
2023-04-10T02:28:32.562Z,49.20
2023-04-10T02:30:58.939Z,50.75
2023-04-10T02:33:26.715Z,51.20
2023-04-10T02:35:53.226Z,51.10
2023-04-10T02:38:19.626Z,49.58
2023-04-10T02:40:45.973Z,48.58
2023-04-10T02:43:12.349Z,45.63
2023-04-10T02:45:38.699Z,48.92
2023-04-10T02:48:05.716Z,50.03
2023-04-10T02:50:33.497Z,55.17
2023-04-10T02:52:59.876Z,46.75
2023-04-10T02:55:26.256Z,51.45
2023-04-10T02:57:52.631Z,46.28
2023-04-10T03:00:19.941Z,48.60
2023-04-10T03:02:46.560Z,52.35
2023-04-10T03:05:13.203Z,47.97
2023-04-10T03:07:40.868Z,48.80
2023-04-10T03:10:08.515Z,44.08
2023-04-10T03:12:34.900Z,47.38
2023-04-10T03:15:01.278Z,49.55
2023-04-10T03:17:27.686Z,50.40
2023-04-10T03:19:54.054Z,52.47
2023-04-10T03:22:20.415Z,48.47
2023-04-10T03:24:48.070Z,49.13
2023-04-10T03:27:14.481Z,46.67
2023-04-10T03:29:40.858Z,48.97
2023-04-10T03:32:07.204Z,49.60
2023-04-10T03:34:33.568Z,47.00
2023-04-10T03:36:59.932Z,48.80
2023-04-10T03:39:26.278Z,50.63
2023-04-10T03:41:53.987Z,50.55
2023-04-10T03:44:20.336Z,49.35
2023-04-10T03:46:46.756Z,45.97
2023-04-10T03:49:13.157Z,49.58
2023-04-10T03:51:39.569Z,53.63
2023-04-10T03:54:05.930Z,50.70
2023-04-10T03:56:32.470Z,45.47
2023-04-10T03:59:00.145Z,49.47
2023-04-10T04:01:26.546Z,49.50
2023-04-10T04:03:53.350Z,49.58
2023-04-10T04:06:20.212Z,46.22
2023-04-10T04:08:46.558Z,49.97
2023-04-10T04:11:12.964Z,47.28
2023-04-10T04:13:39.305Z,48.00
2023-04-10T04:16:09.038Z,47.67
2023-04-10T04:18:35.442Z,48.03
2023-04-10T04:21:01.842Z,44.13
2023-04-10T04:23:28.207Z,50.05
2023-04-10T04:25:55.727Z,52.33
2023-04-10T04:28:22.610Z,44.15
2023-04-10T04:30:48.951Z,46.13
2023-04-10T04:33:16.688Z,46.33
2023-04-10T04:35:43.105Z,44.28
2023-04-10T04:38:09.505Z,46.60
2023-04-10T04:40:35.865Z,48.35
2023-04-10T04:43:02.200Z,44.20
2023-04-10T04:45:28.540Z,45.22
2023-04-10T04:47:55.132Z,44.30
2023-04-10T04:50:22.817Z,43.05
2023-04-10T04:52:49.400Z,45.45
2023-04-10T04:55:15.813Z,42.95
2023-04-10T04:57:42.151Z,42.95
2023-04-10T05:00:09.418Z,43.40
2023-04-10T05:02:35.914Z,41.75
2023-04-10T05:05:02.602Z,46.15
2023-04-10T05:07:30.288Z,41.67
2023-04-10T05:09:56.811Z,45.42
2023-04-10T05:12:23.178Z,41.55
2023-04-10T05:14:49.519Z,47.75
2023-04-10T05:17:15.905Z,46.05
2023-04-10T05:19:42.290Z,39.08
2023-04-10T05:22:08.750Z,42.80
2023-04-10T05:24:36.479Z,42.78
2023-04-10T05:27:03.043Z,43.58
2023-04-10T05:29:29.433Z,46.05
2023-04-10T05:31:55.789Z,39.63
2023-04-10T05:34:22.209Z,42.28
2023-04-10T05:36:48.549Z,41.17
2023-04-10T05:39:14.896Z,41.08
2023-04-10T05:41:42.567Z,42.35
2023-04-10T05:44:08.912Z,39.38
2023-04-10T05:46:35.368Z,40.45
2023-04-10T05:49:01.771Z,40.00
2023-04-10T05:51:28.139Z,42.15
2023-04-10T05:53:54.519Z,39.70
2023-04-10T05:56:20.929Z,41.08
2023-04-10T05:58:48.609Z,35.20
2023-04-10T06:01:15.034Z,37.55
2023-04-10T06:03:41.611Z,42.13
2023-04-10T06:06:08.266Z,39.47
2023-04-10T06:08:34.668Z,37.75
2023-04-10T06:11:01.092Z,38.67
2023-04-10T06:13:27.500Z,39.80
2023-04-10T06:15:55.254Z,37.40
2023-04-10T06:18:21.625Z,39.17
2023-04-10T06:20:47.969Z,36.13
2023-04-10T06:23:14.428Z,38.00
2023-04-10T06:25:40.969Z,39.25
2023-04-10T06:28:07.406Z,38.45
2023-04-10T06:30:33.786Z,33.80
2023-04-10T06:33:01.539Z,37.90
2023-04-10T06:35:27.980Z,34.80
2023-04-10T06:37:54.431Z,33.67
2023-04-10T06:40:20.818Z,32.75
2023-04-10T06:42:47.166Z,34.35
2023-04-10T06:45:13.605Z,35.78
2023-04-10T06:47:40.097Z,32.65
2023-04-10T06:50:08.500Z,38.45
2023-04-10T06:52:34.898Z,32.63
2023-04-10T06:55:01.251Z,30.15
2023-04-10T06:57:27.674Z,28.70
2023-04-10T06:59:54.268Z,27.30
2023-04-10T07:02:20.772Z,28.85
2023-04-10T07:04:47.235Z,30.33
2023-04-10T07:07:14.957Z,26.42
2023-04-10T07:09:41.743Z,28.15
2023-04-10T07:12:08.102Z,25.55
2023-04-10T07:14:34.746Z,25.02
2023-04-10T07:17:01.135Z,29.05
2023-04-10T07:19:27.476Z,24.30
2023-04-10T07:21:53.881Z,24.33
2023-04-10T07:24:21.661Z,23.50
2023-04-10T07:26:47.998Z,21.90
2023-04-10T07:29:14.404Z,22.58
2023-04-10T07:31:41.146Z,22.75
2023-04-10T07:34:07.581Z,23.90
2023-04-10T07:36:34.093Z,24.80
2023-04-10T07:39:00.459Z,20.35
2023-04-10T07:41:28.228Z,20.88
2023-04-10T07:43:54.602Z,21.05
2023-04-10T07:46:21.061Z,21.13
2023-04-10T07:48:47.492Z,20.70
2023-04-10T07:51:14.188Z,18.52
2023-04-10T07:53:40.660Z,19.13
2023-04-10T07:56:08.353Z,18.92
2023-04-10T07:58:36.062Z,18.98
2023-04-10T08:01:02.453Z,20.23
2023-04-10T08:03:29.044Z,17.67
2023-04-10T08:05:55.514Z,17.52
2023-04-10T08:08:21.866Z,19.05
2023-04-10T08:10:48.567Z,16.02
2023-04-10T08:13:14.995Z,16.63
2023-04-10T08:15:42.700Z,17.80
2023-04-10T08:18:09.052Z,17.10
2023-04-10T08:20:35.428Z,17.90
2023-04-10T08:23:12.816Z,17.23
2023-04-10T08:25:45.909Z,16.58
2023-04-10T08:28:12.246Z,16.65
2023-04-10T08:30:38.682Z,17.45
2023-04-10T08:33:06.552Z,17.92
2023-04-10T08:35:32.972Z,15.75
2023-04-10T08:38:12.669Z,15.57
2023-04-10T08:40:40.314Z,16.05
2023-04-10T08:43:06.789Z,15.75
2023-04-10T08:45:33.641Z,15.45
2023-04-10T08:48:04.420Z,16.08
2023-04-10T08:50:34.730Z,14.32
2023-04-10T08:53:08.210Z,16.38
2023-04-10T08:55:35.250Z,13.98
2023-04-10T08:58:02.225Z,15.60
2023-04-10T09:00:28.917Z,15.88
2023-04-10T09:02:55.436Z,15.02
2023-04-10T09:05:22.858Z,15.05
2023-04-10T09:07:50.862Z,16.75
2023-04-10T09:10:17.422Z,15.23
2023-04-10T09:12:44.413Z,16.27
2023-04-10T09:15:11.179Z,15.32
2023-04-10T09:17:37.575Z,14.35
2023-04-10T09:20:20.817Z,15.98
2023-04-10T09:22:47.200Z,15.73
2023-04-10T09:25:29.652Z,14.68
2023-04-10T09:28:00.289Z,14.60
2023-04-10T09:30:33.422Z,13.93
2023-04-10T09:33:01.322Z,13.85
2023-04-10T09:35:37.439Z,13.50
2023-04-10T09:38:14.110Z,12.18
2023-04-10T09:40:41.878Z,13.23
2023-04-10T09:43:17.832Z,12.35
2023-04-10T09:45:48.726Z,13.20
2023-04-10T09:48:15.123Z,13.13
2023-04-10T09:50:41.499Z,15.02
2023-04-10T09:53:08.467Z,14.18
2023-04-10T09:55:35.395Z,13.65
2023-04-10T09:58:03.646Z,14.05
2023-04-10T10:00:30.037Z,14.25
2023-04-10T10:02:59.378Z,12.48
2023-04-10T10:05:26.156Z,14.13
2023-04-10T10:07:52.638Z,13.88
2023-04-10T10:10:19.124Z,15.13
2023-04-10T10:12:48.854Z,13.80
2023-04-10T10:15:31.019Z,12.55
2023-04-10T10:18:03.924Z,11.30
2023-04-10T10:20:32.880Z,11.73
2023-04-10T10:23:02.652Z,11.00
2023-04-10T10:25:30.584Z,10.43
2023-04-10T10:28:02.279Z,10.38
2023-04-10T10:30:32.241Z,10.20
2023-04-10T10:32:59.490Z,9.38
2023-04-10T10:35:28.679Z,11.15
2023-04-10T10:37:58.068Z,9.73
2023-04-10T10:40:28.874Z,9.40
2023-04-10T10:43:00.558Z,9.48
2023-04-10T10:45:34.405Z,8.57
2023-04-10T10:48:01.011Z,10.75
2023-04-10T10:50:50.933Z,9.70
2023-04-10T10:53:31.787Z,9.75
2023-04-10T10:55:58.194Z,8.68
2023-04-10T10:58:46.366Z,9.73
2023-04-10T11:01:14.272Z,10.32
2023-04-10T11:03:41.214Z,11.25
2023-04-10T11:06:08.597Z,10.43
2023-04-10T11:08:37.196Z,9.82
2023-04-10T11:11:05.169Z,10.43
2023-04-10T11:13:32.256Z,10.40
2023-04-10T11:16:00.660Z,10.38
2023-04-10T11:19:10.477Z,11.10
2023-04-10T11:22:02.664Z,10.68
2023-04-10T11:24:30.137Z,11.13
2023-04-10T11:26:56.632Z,10.40
2023-04-10T11:29:35.152Z,9.60
2023-04-10T11:32:02.970Z,10.57
2023-04-10T11:34:30.689Z,10.57
2023-04-10T11:36:57.101Z,11.15
2023-04-10T11:39:23.984Z,11.25
2023-04-10T11:41:51.669Z,9.30
2023-04-10T11:44:26.687Z,10.60
2023-04-10T11:46:53.623Z,9.82
2023-04-10T11:49:22.404Z,9.63
2023-04-10T11:51:51.277Z,11.10
2023-04-10T11:54:19.729Z,11.40
2023-04-10T11:56:56.152Z,12.32
2023-04-10T11:59:22.816Z,10.02
2023-04-10T12:01:50.700Z,10.45
2023-04-10T12:04:18.777Z,10.07
2023-04-10T12:06:46.038Z,9.50
2023-04-10T12:09:14.832Z,9.85
2023-04-10T12:11:49.140Z,10.95
2023-04-10T12:14:15.517Z,8.93
2023-04-10T12:16:41.935Z,8.35
2023-04-10T12:19:08.627Z,7.63
2023-04-10T12:21:36.261Z,8.23
2023-04-10T12:24:02.664Z,7.93
2023-04-10T12:26:30.384Z,8.35
2023-04-10T12:28:57.910Z,8.20
2023-04-10T12:31:28.552Z,8.52
2023-04-10T12:33:54.984Z,7.78
2023-04-10T12:36:21.512Z,7.63
2023-04-10T12:38:47.884Z,9.75
2023-04-10T12:41:21.761Z,8.40
2023-04-10T12:43:49.560Z,7.97
2023-04-10T12:46:24.599Z,9.27
2023-04-10T12:48:51.160Z,7.53
2023-04-10T12:51:17.601Z,7.47
2023-04-10T12:53:44.316Z,7.78
2023-04-10T12:56:11.072Z,7.35
2023-04-10T12:58:38.194Z,11.40
2023-04-10T13:01:08.542Z,7.70
2023-04-10T13:03:35.802Z,7.63
2023-04-10T13:06:02.348Z,7.88
2023-04-10T13:08:28.785Z,7.65
2023-04-10T13:10:55.114Z,7.45
2023-04-10T13:13:21.444Z,8.65
2023-04-10T13:15:47.916Z,8.52
2023-04-10T13:18:15.661Z,8.05
2023-04-10T13:20:42.045Z,7.63
2023-04-10T13:23:08.609Z,9.43
2023-04-10T13:25:37.608Z,7.95
2023-04-10T13:28:03.960Z,7.60
2023-04-10T13:30:30.333Z,7.85
2023-04-10T13:32:56.713Z,7.72
2023-04-10T13:35:24.419Z,7.93
2023-04-10T13:37:50.792Z,6.45
2023-04-10T13:40:17.141Z,7.30
2023-04-10T13:42:43.491Z,7.68
2023-04-10T13:45:10.938Z,8.68
2023-04-10T13:47:37.340Z,7.30
2023-04-10T13:50:03.990Z,7.80
2023-04-10T13:52:31.837Z,7.10
2023-04-10T13:54:58.191Z,7.00
2023-04-10T13:57:24.552Z,6.78
2023-04-10T13:59:50.932Z,8.98
2023-04-10T14:02:17.356Z,9.02
2023-04-10T14:04:43.833Z,8.85
2023-04-10T14:07:10.193Z,9.23
2023-04-10T14:09:37.974Z,9.70
2023-04-10T14:12:04.358Z,8.27
2023-04-10T14:14:30.734Z,8.05
2023-04-10T14:16:57.510Z,6.55
2023-04-10T14:19:24.055Z,6.15
2023-04-10T14:21:50.458Z,5.70
2023-04-10T14:24:16.806Z,6.03
2023-04-10T14:26:44.515Z,4.82
2023-04-10T14:29:10.948Z,5.20
2023-04-10T14:31:44.142Z,6.38
2023-04-10T14:36:47.516Z,6.60
2023-04-10T14:39:14.093Z,7.55
2023-04-10T14:41:40.468Z,7.47
2023-04-10T14:44:08.167Z,5.43
2023-04-10T14:46:34.565Z,6.05
2023-04-10T14:49:00.992Z,6.43
2023-04-10T14:51:27.371Z,5.78
2023-04-10T14:53:53.924Z,5.85
2023-04-10T14:56:20.656Z,8.25
2023-04-10T14:58:47.031Z,5.72
2023-04-10T15:01:15.092Z,6.50
2023-04-10T15:03:41.798Z,6.05
2023-04-10T15:06:08.291Z,5.78
2023-04-10T15:08:34.689Z,4.95
2023-04-10T15:11:01.269Z,4.80
2023-04-10T15:13:27.636Z,5.22
2023-04-10T15:15:53.999Z,4.95
2023-04-10T15:18:21.721Z,4.30
2023-04-10T15:20:48.153Z,7.82
2023-04-10T15:23:14.614Z,4.53
2023-04-10T15:25:41.024Z,4.97
2023-04-10T15:28:07.410Z,5.25
2023-04-10T15:30:33.772Z,4.90
2023-04-10T15:33:00.255Z,4.43
2023-04-10T15:35:28.139Z,4.78
2023-04-10T15:37:54.677Z,5.97
2023-04-10T15:40:21.175Z,4.80
2023-04-10T15:42:47.543Z,4.28
2023-04-10T15:45:14.009Z,3.95
2023-04-10T15:47:40.441Z,6.03
2023-04-10T15:50:09.091Z,8.40
2023-04-10T15:52:38.342Z,4.05
2023-04-10T15:55:05.566Z,4.40
2023-04-10T15:57:31.932Z,4.28
2023-04-10T15:59:58.337Z,5.95
2023-04-10T16:02:24.898Z,4.93
2023-04-10T16:04:51.594Z,3.90
2023-04-10T16:07:18.117Z,4.70
2023-04-10T16:09:45.806Z,4.07
2023-04-10T16:12:12.803Z,4.57
2023-04-10T16:14:39.152Z,5.55
2023-04-10T16:17:05.537Z,3.88
2023-04-10T16:19:31.875Z,4.78
2023-04-10T16:21:58.235Z,4.45
2023-04-10T16:24:24.605Z,3.78
2023-04-10T16:26:52.270Z,4.20
2023-04-10T16:29:18.636Z,5.32
2023-04-10T16:31:45.310Z,4.63
2023-04-10T16:34:11.726Z,4.55
2023-04-10T16:36:38.079Z,4.13
2023-04-10T16:39:04.448Z,4.60
2023-04-10T16:41:30.841Z,4.15
2023-04-10T16:43:58.498Z,5.18
2023-04-10T16:46:25.004Z,4.55
2023-04-10T16:48:51.449Z,4.60
2023-04-10T16:51:18.328Z,5.68
2023-04-10T16:53:45.106Z,5.18
2023-04-10T16:56:11.514Z,4.78
2023-04-10T16:58:37.901Z,5.07
2023-04-10T17:01:19.572Z,4.53
2023-04-10T17:03:48.261Z,5.03
2023-04-10T17:06:14.742Z,5.18
2023-04-10T17:08:41.142Z,5.20
2023-04-10T17:11:07.565Z,5.38
2023-04-10T17:13:34.161Z,5.88
2023-04-10T17:16:00.547Z,5.50
2023-04-10T17:18:28.224Z,5.20
2023-04-10T17:20:54.586Z,8.02
2023-04-10T17:23:21.257Z,4.88
2023-04-10T17:25:47.718Z,5.07
2023-04-10T17:28:14.099Z,5.43
2023-04-10T17:30:40.828Z,5.47
2023-04-10T17:33:07.205Z,5.82
2023-04-10T17:35:34.970Z,5.22
2023-04-10T17:38:01.401Z,9.05
2023-04-10T17:40:27.902Z,5.05
2023-04-10T17:42:54.290Z,5.10
2023-04-10T17:45:20.730Z,4.63
2023-04-10T17:47:47.152Z,5.25
2023-04-10T17:50:13.758Z,6.90
2023-04-10T17:52:41.545Z,6.10
2023-04-10T17:55:08.880Z,5.70
2023-04-10T17:57:35.234Z,5.10
2023-04-10T18:00:02.385Z,5.35
2023-04-10T18:02:28.844Z,4.70
2023-04-10T18:04:56.116Z,4.90
2023-04-10T18:07:22.555Z,4.75
2023-04-10T18:09:50.252Z,7.13
2023-04-10T18:12:16.603Z,4.97
2023-04-10T18:14:43.134Z,4.95
2023-04-10T18:17:09.468Z,5.20
2023-04-10T18:19:35.819Z,3.90
2023-04-10T18:22:02.182Z,6.70
2023-04-10T18:24:28.559Z,6.25
2023-04-10T18:26:56.262Z,5.43
2023-04-10T18:29:22.646Z,5.75
2023-04-10T18:31:49.026Z,4.80
2023-04-10T18:34:15.378Z,4.60
2023-04-10T18:36:41.739Z,5.75
2023-04-10T18:39:08.246Z,5.10
2023-04-10T18:41:34.620Z,5.93
2023-04-10T18:44:05.588Z,5.47
2023-04-10T18:46:32.822Z,5.43
2023-04-10T18:48:59.540Z,5.28
2023-04-10T18:51:26.064Z,4.75
2023-04-10T18:53:52.627Z,4.90
2023-04-10T18:56:19.119Z,5.65
2023-04-10T18:58:46.903Z,4.65
2023-04-10T19:01:15.964Z,4.80
2023-04-10T19:03:42.454Z,4.40
2023-04-10T19:06:09.022Z,4.40
2023-04-10T19:08:35.812Z,4.85
2023-04-10T19:11:03.827Z,4.95
2023-04-10T19:13:30.329Z,4.88
2023-04-10T19:15:56.730Z,4.43
2023-04-10T19:18:24.415Z,6.22
2023-04-10T19:20:53.024Z,4.82
2023-04-10T19:23:19.942Z,4.53
2023-04-10T19:25:46.452Z,4.53
2023-04-10T19:28:12.818Z,4.22
2023-04-10T19:30:39.167Z,4.88
2023-04-10T19:33:05.724Z,5.22
2023-04-10T19:35:33.624Z,6.15
2023-04-10T19:38:00.010Z,3.60
2023-04-10T19:40:26.385Z,4.38
2023-04-10T19:42:52.992Z,6.50
2023-04-10T19:45:20.180Z,5.00
2023-04-10T19:47:50.289Z,6.80
2023-04-10T19:50:16.799Z,5.90
2023-04-10T19:52:44.498Z,4.32
2023-04-10T19:55:10.934Z,4.22
2023-04-10T19:57:37.320Z,4.88
2023-04-10T20:00:04.446Z,4.95
2023-04-10T20:02:31.041Z,5.50
2023-04-10T20:04:57.602Z,5.18
2023-04-10T20:07:24.057Z,5.28
2023-04-10T20:09:51.912Z,5.35
2023-04-10T20:12:18.268Z,5.70
2023-04-10T20:14:44.646Z,4.22
2023-04-10T20:17:11.102Z,3.80
2023-04-10T20:19:37.550Z,4.70
2023-04-10T20:22:03.993Z,4.07
2023-04-10T20:24:30.426Z,4.45
2023-04-10T20:26:58.180Z,5.75
2023-04-10T20:29:24.556Z,4.32
2023-04-10T20:31:50.940Z,4.32
2023-04-10T20:34:17.400Z,5.18
2023-04-10T20:36:43.764Z,5.40
2023-04-10T20:39:10.131Z,6.10
2023-04-10T20:41:36.537Z,5.00
2023-04-10T20:44:04.280Z,4.45
2023-04-10T20:46:30.657Z,4.50
2023-04-10T20:48:57.185Z,4.97
2023-04-10T20:51:23.597Z,4.70
2023-04-10T20:53:49.960Z,4.28
2023-04-10T20:56:16.497Z,4.20
2023-04-10T20:58:42.877Z,4.97
2023-04-10T21:01:10.807Z,4.75
2023-04-10T21:03:37.341Z,5.03
2023-04-10T21:06:04.043Z,4.47
2023-04-10T21:08:30.446Z,5.18
2023-04-10T21:10:56.883Z,4.68
2023-04-10T21:13:23.247Z,5.03
2023-04-10T21:15:49.666Z,4.97
2023-04-10T21:18:17.415Z,5.70
2023-04-10T21:20:44.453Z,5.15
2023-04-10T21:23:10.956Z,4.40
2023-04-10T21:25:38.565Z,4.32
2023-04-10T21:28:05.004Z,5.40
2023-04-10T21:30:31.397Z,4.80
2023-04-10T21:32:57.873Z,4.85
2023-04-10T21:35:25.734Z,5.22
2023-04-10T21:37:52.091Z,6.03
2023-04-10T21:40:18.473Z,4.97
2023-04-10T21:42:44.820Z,4.38
2023-04-10T21:45:12.293Z,4.35
2023-04-10T21:47:38.690Z,4.00
2023-04-10T21:50:06.067Z,5.80
2023-04-10T21:52:33.787Z,4.65
2023-04-10T21:55:00.285Z,6.13
2023-04-10T21:57:26.668Z,7.43
2023-04-10T21:59:53.063Z,3.90
2023-04-10T22:02:19.561Z,4.00
2023-04-10T22:04:53.828Z,4.15
2023-04-10T22:07:21.320Z,4.28
2023-04-10T22:09:49.057Z,10.05
2023-04-10T22:12:15.560Z,5.72
2023-04-10T22:14:41.925Z,3.67
2023-04-10T22:17:08.382Z,6.15
2023-04-10T22:19:34.770Z,5.18
2023-04-10T22:22:01.185Z,5.78
2023-04-10T22:24:27.659Z,4.00
2023-04-10T22:26:55.354Z,4.20
2023-04-10T22:29:21.734Z,4.22
2023-04-10T22:31:48.098Z,5.88
2023-04-10T22:34:14.467Z,3.92
2023-04-10T22:36:41.023Z,4.43
2023-04-10T22:39:07.508Z,3.90
2023-04-10T22:41:33.878Z,4.93
2023-04-10T22:44:01.683Z,4.07
2023-04-10T22:46:28.094Z,4.15
2023-04-10T22:48:56.487Z,4.28
2023-04-10T22:51:23.113Z,4.68
2023-04-10T22:53:49.454Z,5.60
2023-04-10T22:56:15.982Z,3.10
2023-04-10T22:58:42.353Z,3.60
2023-04-10T23:01:10.475Z,3.88
2023-04-10T23:03:37.042Z,4.00
2023-04-10T23:06:05.079Z,4.35
2023-04-10T23:08:31.482Z,5.30
2023-04-10T23:10:57.862Z,5.55
2023-04-10T23:13:24.397Z,4.93
2023-04-10T23:15:51.151Z,4.82
2023-04-10T23:18:19.094Z,5.13
2023-04-10T23:20:46.122Z,5.05
2023-04-10T23:23:12.596Z,4.55
2023-04-10T23:25:39.217Z,3.47
2023-04-10T23:28:05.802Z,4.38
2023-04-10T23:30:32.205Z,3.80
2023-04-10T23:32:58.689Z,4.18
2023-04-10T23:35:27.451Z,3.83
2023-04-10T23:37:54.149Z,3.63
2023-04-10T23:40:21.338Z,5.95
2023-04-10T23:42:47.890Z,5.82
2023-04-10T23:45:14.246Z,4.18
2023-04-10T23:47:40.643Z,4.65
2023-04-10T23:50:08.185Z,3.53
2023-04-10T23:52:35.874Z,5.80
2023-04-10T23:55:02.202Z,3.25
2023-04-10T23:57:28.578Z,3.33
2023-04-10T23:59:54.954Z,4.00
